sensor_id;sensor_type;location;lat;lon;timestamp;P1;durP1;ratioP1;P2;durP2;ratioP2
21876;SDS011;11103;43.788;23.710;2022-08-21T00:00:48;20.80;;;11.50;;
21876;SDS011;11103;43.788;23.710;2022-08-21T00:03:14;20.40;;;12.47;;
21876;SDS011;11103;43.788;23.710;2022-08-21T00:05:42;20.67;;;11.83;;
21876;SDS011;11103;43.788;23.710;2022-08-21T00:08:10;23.33;;;12.53;;
21876;SDS011;11103;43.788;23.710;2022-08-21T00:10:36;22.23;;;11.93;;
21876;SDS011;11103;43.788;23.710;2022-08-21T00:13:04;21.10;;;11.77;;
21876;SDS011;11103;43.788;23.710;2022-08-21T00:15:34;21.23;;;11.87;;
21876;SDS011;11103;43.788;23.710;2022-08-21T00:18:01;18.13;;;11.87;;
21876;SDS011;11103;43.788;23.710;2022-08-21T00:20:28;19.70;;;11.57;;
21876;SDS011;11103;43.788;23.710;2022-08-21T00:22:54;17.87;;;11.83;;
21876;SDS011;11103;43.788;23.710;2022-08-21T00:25:20;20.30;;;11.13;;
21876;SDS011;11103;43.788;23.710;2022-08-21T00:27:46;21.80;;;12.10;;
21876;SDS011;11103;43.788;23.710;2022-08-21T00:30:12;17.93;;;11.60;;
21876;SDS011;11103;43.788;23.710;2022-08-21T00:32:41;16.53;;;11.10;;
21876;SDS011;11103;43.788;23.710;2022-08-21T00:35:08;22.40;;;11.63;;
21876;SDS011;11103;43.788;23.710;2022-08-21T00:37:38;19.57;;;11.67;;
21876;SDS011;11103;43.788;23.710;2022-08-21T00:40:04;21.50;;;11.03;;
21876;SDS011;11103;43.788;23.710;2022-08-21T00:42:31;22.77;;;11.23;;
21876;SDS011;11103;43.788;23.710;2022-08-21T00:44:57;13.93;;;11.40;;
21876;SDS011;11103;43.788;23.710;2022-08-21T00:47:23;21.97;;;11.60;;
21876;SDS011;11103;43.788;23.710;2022-08-21T00:49:48;21.93;;;12.07;;
21876;SDS011;11103;43.788;23.710;2022-08-21T00:52:15;17.13;;;11.40;;
21876;SDS011;11103;43.788;23.710;2022-08-21T00:54:44;24.13;;;11.17;;
21876;SDS011;11103;43.788;23.710;2022-08-21T00:57:13;19.37;;;11.80;;
21876;SDS011;11103;43.788;23.710;2022-08-21T00:59:41;16.87;;;10.17;;
21876;SDS011;11103;43.788;23.710;2022-08-21T01:02:11;22.47;;;12.87;;
21876;SDS011;11103;43.788;23.710;2022-08-21T01:04:36;23.30;;;11.97;;
21876;SDS011;11103;43.788;23.710;2022-08-21T01:07:02;19.33;;;11.67;;
21876;SDS011;11103;43.788;23.710;2022-08-21T01:09:28;18.20;;;11.30;;
21876;SDS011;11103;43.788;23.710;2022-08-21T01:11:53;17.63;;;11.10;;
21876;SDS011;11103;43.788;23.710;2022-08-21T01:14:19;19.03;;;11.33;;
21876;SDS011;11103;43.788;23.710;2022-08-21T01:16:47;20.07;;;11.60;;
21876;SDS011;11103;43.788;23.710;2022-08-21T01:19:14;15.80;;;11.20;;
21876;SDS011;11103;43.788;23.710;2022-08-21T01:21:42;16.67;;;11.17;;
21876;SDS011;11103;43.788;23.710;2022-08-21T01:24:08;19.03;;;10.47;;
21876;SDS011;11103;43.788;23.710;2022-08-21T01:26:34;18.43;;;11.80;;
21876;SDS011;11103;43.788;23.710;2022-08-21T01:29:05;19.17;;;11.63;;
21876;SDS011;11103;43.788;23.710;2022-08-21T01:31:50;20.63;;;11.67;;
21876;SDS011;11103;43.788;23.710;2022-08-21T01:34:15;24.70;;;12.47;;
21876;SDS011;11103;43.788;23.710;2022-08-21T01:36:42;29.17;;;13.00;;
21876;SDS011;11103;43.788;23.710;2022-08-21T01:39:08;20.50;;;13.27;;
21876;SDS011;11103;43.788;23.710;2022-08-21T01:41:34;21.43;;;13.27;;
21876;SDS011;11103;43.788;23.710;2022-08-21T01:44:00;21.10;;;13.87;;
21876;SDS011;11103;43.788;23.710;2022-08-21T01:46:25;21.57;;;14.03;;
21876;SDS011;11103;43.788;23.710;2022-08-21T01:48:51;25.50;;;14.40;;
21876;SDS011;11103;43.788;23.710;2022-08-21T01:53:45;24.50;;;14.50;;
21876;SDS011;11103;43.788;23.710;2022-08-21T01:56:11;22.03;;;14.50;;
21876;SDS011;11103;43.788;23.710;2022-08-21T01:58:42;24.83;;;15.03;;
21876;SDS011;11103;43.788;23.710;2022-08-21T02:01:10;21.03;;;14.37;;
21876;SDS011;11103;43.788;23.710;2022-08-21T02:07:10;22.23;;;14.57;;
21876;SDS011;11103;43.788;23.710;2022-08-21T02:09:36;25.07;;;14.67;;
21876;SDS011;11103;43.788;23.710;2022-08-21T02:12:01;24.83;;;15.37;;
21876;SDS011;11103;43.788;23.710;2022-08-21T02:14:28;24.93;;;14.57;;
21876;SDS011;11103;43.788;23.710;2022-08-21T02:16:53;26.60;;;13.77;;
21876;SDS011;11103;43.788;23.710;2022-08-21T02:19:18;22.10;;;13.30;;
21876;SDS011;11103;43.788;23.710;2022-08-21T02:21:44;24.13;;;13.40;;
21876;SDS011;11103;43.788;23.710;2022-08-21T02:24:10;25.20;;;14.33;;
21876;SDS011;11103;43.788;23.710;2022-08-21T02:26:36;27.90;;;13.77;;
21876;SDS011;11103;43.788;23.710;2022-08-21T02:29:02;25.87;;;13.73;;
21876;SDS011;11103;43.788;23.710;2022-08-21T02:31:29;23.33;;;12.70;;
21876;SDS011;11103;43.788;23.710;2022-08-21T02:33:56;20.73;;;12.93;;
21876;SDS011;11103;43.788;23.710;2022-08-21T02:36:21;26.23;;;13.73;;
21876;SDS011;11103;43.788;23.710;2022-08-21T02:38:47;18.93;;;11.43;;
21876;SDS011;11103;43.788;23.710;2022-08-21T02:41:14;20.80;;;11.50;;
21876;SDS011;11103;43.788;23.710;2022-08-21T02:43:42;18.57;;;11.77;;
21876;SDS011;11103;43.788;23.710;2022-08-21T02:46:09;25.83;;;12.20;;
21876;SDS011;11103;43.788;23.710;2022-08-21T02:48:35;16.33;;;11.10;;
21876;SDS011;11103;43.788;23.710;2022-08-21T02:51:03;19.07;;;11.03;;
21876;SDS011;11103;43.788;23.710;2022-08-21T02:53:33;19.80;;;12.73;;
21876;SDS011;11103;43.788;23.710;2022-08-21T02:56:00;20.57;;;12.00;;
21876;SDS011;11103;43.788;23.710;2022-08-21T02:58:30;18.97;;;12.13;;
21876;SDS011;11103;43.788;23.710;2022-08-21T03:00:59;22.43;;;12.63;;
21876;SDS011;11103;43.788;23.710;2022-08-21T03:03:25;20.93;;;13.67;;
21876;SDS011;11103;43.788;23.710;2022-08-21T03:05:53;19.17;;;12.07;;
21876;SDS011;11103;43.788;23.710;2022-08-21T03:08:19;20.30;;;12.23;;
21876;SDS011;11103;43.788;23.710;2022-08-21T03:10:48;21.07;;;12.73;;
21876;SDS011;11103;43.788;23.710;2022-08-21T03:13:16;20.37;;;12.63;;
21876;SDS011;11103;43.788;23.710;2022-08-21T03:15:43;16.17;;;11.23;;
21876;SDS011;11103;43.788;23.710;2022-08-21T03:18:09;21.57;;;11.43;;
21876;SDS011;11103;43.788;23.710;2022-08-21T03:20:36;20.33;;;10.83;;
21876;SDS011;11103;43.788;23.710;2022-08-21T03:23:03;19.63;;;13.20;;
21876;SDS011;11103;43.788;23.710;2022-08-21T03:25:30;23.10;;;12.27;;
21876;SDS011;11103;43.788;23.710;2022-08-21T03:27:57;20.63;;;12.30;;
21876;SDS011;11103;43.788;23.710;2022-08-21T03:30:24;18.90;;;12.13;;
21876;SDS011;11103;43.788;23.710;2022-08-21T03:32:49;20.57;;;12.70;;
21876;SDS011;11103;43.788;23.710;2022-08-21T03:35:16;19.43;;;11.57;;
21876;SDS011;11103;43.788;23.710;2022-08-21T03:37:42;21.97;;;12.87;;
21876;SDS011;11103;43.788;23.710;2022-08-21T03:40:08;22.97;;;12.30;;
21876;SDS011;11103;43.788;23.710;2022-08-21T03:42:36;22.10;;;12.47;;
21876;SDS011;11103;43.788;23.710;2022-08-21T03:45:02;20.03;;;11.87;;
21876;SDS011;11103;43.788;23.710;2022-08-21T03:47:28;20.03;;;13.33;;
21876;SDS011;11103;43.788;23.710;2022-08-21T03:49:54;18.87;;;12.87;;
21876;SDS011;11103;43.788;23.710;2022-08-21T03:52:19;22.57;;;13.63;;
21876;SDS011;11103;43.788;23.710;2022-08-21T03:54:45;22.20;;;13.80;;
21876;SDS011;11103;43.788;23.710;2022-08-21T03:57:11;17.67;;;13.07;;
21876;SDS011;11103;43.788;23.710;2022-08-21T03:59:37;18.27;;;13.03;;
21876;SDS011;11103;43.788;23.710;2022-08-21T04:02:04;21.83;;;13.87;;
21876;SDS011;11103;43.788;23.710;2022-08-21T04:04:31;18.67;;;12.90;;
21876;SDS011;11103;43.788;23.710;2022-08-21T04:06:57;21.20;;;14.07;;
21876;SDS011;11103;43.788;23.710;2022-08-21T04:09:24;22.43;;;14.07;;
21876;SDS011;11103;43.788;23.710;2022-08-21T04:11:49;17.83;;;12.80;;
21876;SDS011;11103;43.788;23.710;2022-08-21T04:14:16;19.07;;;13.20;;
21876;SDS011;11103;43.788;23.710;2022-08-21T04:16:51;18.23;;;12.67;;
21876;SDS011;11103;43.788;23.710;2022-08-21T04:19:16;21.10;;;13.10;;
21876;SDS011;11103;43.788;23.710;2022-08-21T04:21:42;25.80;;;14.00;;
21876;SDS011;11103;43.788;23.710;2022-08-21T04:24:08;23.83;;;15.50;;
21876;SDS011;11103;43.788;23.710;2022-08-21T04:26:35;29.00;;;14.40;;
21876;SDS011;11103;43.788;23.710;2022-08-21T04:29:01;24.40;;;15.33;;
21876;SDS011;11103;43.788;23.710;2022-08-21T04:31:28;23.67;;;15.30;;
21876;SDS011;11103;43.788;23.710;2022-08-21T04:33:53;27.73;;;15.60;;
21876;SDS011;11103;43.788;23.710;2022-08-21T04:36:21;21.63;;;14.63;;
21876;SDS011;11103;43.788;23.710;2022-08-21T04:38:47;23.30;;;15.50;;
21876;SDS011;11103;43.788;23.710;2022-08-21T04:41:13;20.60;;;14.20;;
21876;SDS011;11103;43.788;23.710;2022-08-21T04:43:39;23.37;;;14.30;;
21876;SDS011;11103;43.788;23.710;2022-08-21T04:46:06;21.60;;;14.70;;
21876;SDS011;11103;43.788;23.710;2022-08-21T04:48:31;26.33;;;14.60;;
21876;SDS011;11103;43.788;23.710;2022-08-21T04:51:16;27.67;;;14.37;;
21876;SDS011;11103;43.788;23.710;2022-08-21T04:53:50;20.43;;;13.93;;
21876;SDS011;11103;43.788;23.710;2022-08-21T04:56:26;23.30;;;13.63;;
21876;SDS011;11103;43.788;23.710;2022-08-21T04:58:57;24.73;;;15.27;;
21876;SDS011;11103;43.788;23.710;2022-08-21T05:01:25;24.63;;;14.00;;
21876;SDS011;11103;43.788;23.710;2022-08-21T05:03:54;24.17;;;14.30;;
21876;SDS011;11103;43.788;23.710;2022-08-21T05:06:26;23.87;;;13.53;;
21876;SDS011;11103;43.788;23.710;2022-08-21T05:08:56;25.10;;;15.30;;
21876;SDS011;11103;43.788;23.710;2022-08-21T05:11:30;28.70;;;16.50;;
21876;SDS011;11103;43.788;23.710;2022-08-21T05:13:56;24.33;;;16.53;;
21876;SDS011;11103;43.788;23.710;2022-08-21T05:16:22;32.50;;;20.40;;
21876;SDS011;11103;43.788;23.710;2022-08-21T05:18:47;34.20;;;22.27;;
21876;SDS011;11103;43.788;23.710;2022-08-21T05:21:13;31.73;;;21.60;;
21876;SDS011;11103;43.788;23.710;2022-08-21T05:23:38;33.27;;;22.47;;
21876;SDS011;11103;43.788;23.710;2022-08-21T05:26:04;141.13;;;89.40;;
21876;SDS011;11103;43.788;23.710;2022-08-21T05:28:30;66.60;;;41.60;;
21876;SDS011;11103;43.788;23.710;2022-08-21T05:30:56;71.70;;;49.00;;
21876;SDS011;11103;43.788;23.710;2022-08-21T05:33:22;31.47;;;19.43;;
21876;SDS011;11103;43.788;23.710;2022-08-21T05:35:52;22.93;;;15.50;;
21876;SDS011;11103;43.788;23.710;2022-08-21T05:38:20;111.97;;;78.53;;
21876;SDS011;11103;43.788;23.710;2022-08-21T05:40:47;37.13;;;25.67;;
21876;SDS011;11103;43.788;23.710;2022-08-21T05:43:12;116.00;;;71.37;;
21876;SDS011;11103;43.788;23.710;2022-08-21T05:45:38;40.53;;;27.73;;
21876;SDS011;11103;43.788;23.710;2022-08-21T05:48:07;85.00;;;48.70;;
21876;SDS011;11103;43.788;23.710;2022-08-21T05:50:34;89.30;;;56.67;;
21876;SDS011;11103;43.788;23.710;2022-08-21T05:53:00;70.50;;;45.33;;
21876;SDS011;11103;43.788;23.710;2022-08-21T05:55:26;91.00;;;55.40;;
21876;SDS011;11103;43.788;23.710;2022-08-21T05:57:51;36.83;;;22.90;;
21876;SDS011;11103;43.788;23.710;2022-08-21T06:00:18;107.20;;;63.93;;
21876;SDS011;11103;43.788;23.710;2022-08-21T06:02:55;65.00;;;40.27;;
21876;SDS011;11103;43.788;23.710;2022-08-21T06:05:33;299.17;;;185.87;;
21876;SDS011;11103;43.788;23.710;2022-08-21T06:08:00;92.63;;;53.40;;
21876;SDS011;11103;43.788;23.710;2022-08-21T06:10:25;230.47;;;137.60;;
21876;SDS011;11103;43.788;23.710;2022-08-21T06:12:53;386.57;;;250.60;;
21876;SDS011;11103;43.788;23.710;2022-08-21T06:15:20;140.10;;;83.47;;
21876;SDS011;11103;43.788;23.710;2022-08-21T06:17:45;68.37;;;43.30;;
21876;SDS011;11103;43.788;23.710;2022-08-21T06:20:11;54.37;;;33.50;;
21876;SDS011;11103;43.788;23.710;2022-08-21T06:22:36;98.33;;;58.27;;
21876;SDS011;11103;43.788;23.710;2022-08-21T06:25:01;51.07;;;31.50;;
21876;SDS011;11103;43.788;23.710;2022-08-21T06:27:27;43.63;;;29.10;;
21876;SDS011;11103;43.788;23.710;2022-08-21T06:29:53;29.20;;;21.20;;
21876;SDS011;11103;43.788;23.710;2022-08-21T06:32:18;26.20;;;15.10;;
21876;SDS011;11103;43.788;23.710;2022-08-21T06:34:44;23.17;;;13.57;;
21876;SDS011;11103;43.788;23.710;2022-08-21T06:37:11;20.00;;;12.70;;
21876;SDS011;11103;43.788;23.710;2022-08-21T06:39:36;35.20;;;22.43;;
21876;SDS011;11103;43.788;23.710;2022-08-21T06:42:02;34.03;;;20.83;;
21876;SDS011;11103;43.788;23.710;2022-08-21T06:44:27;28.73;;;18.77;;
21876;SDS011;11103;43.788;23.710;2022-08-21T06:46:54;18.37;;;11.70;;
21876;SDS011;11103;43.788;23.710;2022-08-21T06:49:19;29.80;;;17.43;;
21876;SDS011;11103;43.788;23.710;2022-08-21T06:51:44;43.93;;;28.30;;
21876;SDS011;11103;43.788;23.710;2022-08-21T06:54:10;30.10;;;19.97;;
21876;SDS011;11103;43.788;23.710;2022-08-21T06:56:35;26.23;;;17.37;;
21876;SDS011;11103;43.788;23.710;2022-08-21T06:59:03;26.17;;;17.70;;
21876;SDS011;11103;43.788;23.710;2022-08-21T07:01:28;49.60;;;36.37;;
21876;SDS011;11103;43.788;23.710;2022-08-21T07:06:50;65.17;;;39.33;;
21876;SDS011;11103;43.788;23.710;2022-08-21T07:09:16;93.63;;;62.43;;
21876;SDS011;11103;43.788;23.710;2022-08-21T07:11:41;101.03;;;69.27;;
21876;SDS011;11103;43.788;23.710;2022-08-21T07:14:07;24.63;;;16.70;;
21876;SDS011;11103;43.788;23.710;2022-08-21T07:16:32;24.23;;;12.70;;
21876;SDS011;11103;43.788;23.710;2022-08-21T07:18:58;35.40;;;24.83;;
21876;SDS011;11103;43.788;23.710;2022-08-21T07:21:24;28.53;;;18.67;;
21876;SDS011;11103;43.788;23.710;2022-08-21T07:23:50;34.90;;;22.20;;
21876;SDS011;11103;43.788;23.710;2022-08-21T07:26:17;61.33;;;40.03;;
21876;SDS011;11103;43.788;23.710;2022-08-21T07:28:46;32.30;;;18.17;;
21876;SDS011;11103;43.788;23.710;2022-08-21T07:31:16;47.47;;;33.67;;
21876;SDS011;11103;43.788;23.710;2022-08-21T07:33:43;24.10;;;15.23;;
21876;SDS011;11103;43.788;23.710;2022-08-21T07:36:09;31.27;;;22.20;;
21876;SDS011;11103;43.788;23.710;2022-08-21T07:38:35;24.20;;;13.63;;
21876;SDS011;11103;43.788;23.710;2022-08-21T07:41:02;21.87;;;13.93;;
21876;SDS011;11103;43.788;23.710;2022-08-21T07:43:31;14.83;;;12.20;;
21876;SDS011;11103;43.788;23.710;2022-08-21T07:45:57;23.63;;;13.73;;
21876;SDS011;11103;43.788;23.710;2022-08-21T07:48:23;22.77;;;16.27;;
21876;SDS011;11103;43.788;23.710;2022-08-21T07:50:49;19.50;;;12.73;;
21876;SDS011;11103;43.788;23.710;2022-08-21T07:53:16;20.83;;;12.80;;
21876;SDS011;11103;43.788;23.710;2022-08-21T07:55:42;19.37;;;12.23;;
21876;SDS011;11103;43.788;23.710;2022-08-21T07:58:07;20.77;;;12.50;;
21876;SDS011;11103;43.788;23.710;2022-08-21T08:00:33;17.77;;;12.27;;
21876;SDS011;11103;43.788;23.710;2022-08-21T08:02:59;21.97;;;14.43;;
21876;SDS011;11103;43.788;23.710;2022-08-21T08:05:26;23.87;;;16.20;;
21876;SDS011;11103;43.788;23.710;2022-08-21T08:07:53;23.63;;;17.20;;
21876;SDS011;11103;43.788;23.710;2022-08-21T08:10:20;31.93;;;21.33;;
21876;SDS011;11103;43.788;23.710;2022-08-21T08:12:47;17.07;;;11.97;;
21876;SDS011;11103;43.788;23.710;2022-08-21T08:15:17;26.07;;;17.67;;
21876;SDS011;11103;43.788;23.710;2022-08-21T08:17:45;32.33;;;19.83;;
21876;SDS011;11103;43.788;23.710;2022-08-21T08:20:12;25.87;;;19.33;;
21876;SDS011;11103;43.788;23.710;2022-08-21T08:22:40;29.07;;;18.77;;
21876;SDS011;11103;43.788;23.710;2022-08-21T08:25:06;35.53;;;23.30;;
21876;SDS011;11103;43.788;23.710;2022-08-21T08:27:36;54.40;;;37.50;;
21876;SDS011;11103;43.788;23.710;2022-08-21T08:30:03;25.03;;;14.33;;
21876;SDS011;11103;43.788;23.710;2022-08-21T08:32:30;44.43;;;27.50;;
21876;SDS011;11103;43.788;23.710;2022-08-21T08:34:55;42.57;;;29.40;;
21876;SDS011;11103;43.788;23.710;2022-08-21T08:37:21;22.57;;;15.83;;
21876;SDS011;11103;43.788;23.710;2022-08-21T08:39:47;26.77;;;16.90;;
21876;SDS011;11103;43.788;23.710;2022-08-21T08:42:32;28.07;;;18.03;;
21876;SDS011;11103;43.788;23.710;2022-08-21T08:47:36;23.53;;;15.37;;
21876;SDS011;11103;43.788;23.710;2022-08-21T08:50:21;25.90;;;14.33;;
21876;SDS011;11103;43.788;23.710;2022-08-21T08:53:03;25.87;;;14.73;;
21876;SDS011;11103;43.788;23.710;2022-08-21T08:55:37;27.77;;;16.03;;
21876;SDS011;11103;43.788;23.710;2022-08-21T08:58:22;25.33;;;16.90;;
21876;SDS011;11103;43.788;23.710;2022-08-21T09:01:01;17.23;;;14.23;;
21876;SDS011;11103;43.788;23.710;2022-08-21T09:03:31;24.70;;;15.87;;
21876;SDS011;11103;43.788;23.710;2022-08-21T09:12:12;35.30;;;26.17;;
21876;SDS011;11103;43.788;23.710;2022-08-21T09:14:57;44.33;;;33.10;;
21876;SDS011;11103;43.788;23.710;2022-08-21T09:22:47;26.10;;;16.87;;
21876;SDS011;11103;43.788;23.710;2022-08-21T09:25:23;37.77;;;25.33;;
21876;SDS011;11103;43.788;23.710;2022-08-21T09:28:09;31.03;;;20.80;;
21876;SDS011;11103;43.788;23.710;2022-08-21T09:30:37;26.70;;;17.20;;
21876;SDS011;11103;43.788;23.710;2022-08-21T09:33:06;22.60;;;15.80;;
21876;SDS011;11103;43.788;23.710;2022-08-21T09:38:58;26.27;;;19.30;;
21876;SDS011;11103;43.788;23.710;2022-08-21T09:41:28;23.60;;;15.83;;
21876;SDS011;11103;43.788;23.710;2022-08-21T09:43:57;23.90;;;16.20;;
21876;SDS011;11103;43.788;23.710;2022-08-21T09:46:24;25.13;;;19.37;;
21876;SDS011;11103;43.788;23.710;2022-08-21T09:48:52;40.93;;;29.20;;
21876;SDS011;11103;43.788;23.710;2022-08-21T09:51:24;24.27;;;17.23;;
21876;SDS011;11103;43.788;23.710;2022-08-21T09:59:52;31.20;;;19.10;;
21876;SDS011;11103;43.788;23.710;2022-08-21T10:04:51;23.83;;;18.03;;
21876;SDS011;11103;43.788;23.710;2022-08-21T10:07:20;30.53;;;22.83;;
21876;SDS011;11103;43.788;23.710;2022-08-21T10:09:57;53.73;;;37.67;;
21876;SDS011;11103;43.788;23.710;2022-08-21T10:18:27;22.73;;;16.60;;
21876;SDS011;11103;43.788;23.710;2022-08-21T10:27:16;19.23;;;13.73;;
21876;SDS011;11103;43.788;23.710;2022-08-21T10:30:07;19.27;;;14.83;;
21876;SDS011;11103;43.788;23.710;2022-08-21T10:32:41;24.60;;;15.67;;
21876;SDS011;11103;43.788;23.710;2022-08-21T10:36:25;23.13;;;14.17;;
21876;SDS011;11103;43.788;23.710;2022-08-21T10:39:02;18.80;;;13.73;;
21876;SDS011;11103;43.788;23.710;2022-08-21T10:47:13;25.50;;;14.50;;
21876;SDS011;11103;43.788;23.710;2022-08-21T10:55:26;21.60;;;13.87;;
21876;SDS011;11103;43.788;23.710;2022-08-21T10:58:09;15.93;;;13.00;;
21876;SDS011;11103;43.788;23.710;2022-08-21T11:00:48;15.43;;;13.13;;
21876;SDS011;11103;43.788;23.710;2022-08-21T11:03:24;19.90;;;12.93;;
21876;SDS011;11103;43.788;23.710;2022-08-21T11:06:14;19.67;;;12.43;;
21876;SDS011;11103;43.788;23.710;2022-08-21T11:08:46;18.67;;;12.07;;
21876;SDS011;11103;43.788;23.710;2022-08-21T11:11:22;20.93;;;11.53;;
21876;SDS011;11103;43.788;23.710;2022-08-21T11:14:00;17.93;;;11.93;;
21876;SDS011;11103;43.788;23.710;2022-08-21T11:16:57;15.83;;;11.00;;
21876;SDS011;11103;43.788;23.710;2022-08-21T11:19:32;19.40;;;11.70;;
21876;SDS011;11103;43.788;23.710;2022-08-21T11:22:10;16.80;;;11.03;;
21876;SDS011;11103;43.788;23.710;2022-08-21T11:30:10;16.27;;;10.50;;
21876;SDS011;11103;43.788;23.710;2022-08-21T11:43:43;16.27;;;11.40;;
21876;SDS011;11103;43.788;23.710;2022-08-21T11:46:20;23.50;;;10.70;;
21876;SDS011;11103;43.788;23.710;2022-08-21T11:59:49;14.37;;;10.20;;
21876;SDS011;11103;43.788;23.710;2022-08-21T12:02:21;19.33;;;10.60;;
21876;SDS011;11103;43.788;23.710;2022-08-21T12:04:52;11.27;;;9.37;;
21876;SDS011;11103;43.788;23.710;2022-08-21T12:10:39;15.73;;;10.30;;
21876;SDS011;11103;43.788;23.710;2022-08-21T12:13:27;19.50;;;11.07;;
21876;SDS011;11103;43.788;23.710;2022-08-21T12:19:07;15.37;;;9.63;;
21876;SDS011;11103;43.788;23.710;2022-08-21T12:21:33;13.13;;;8.60;;
21876;SDS011;11103;43.788;23.710;2022-08-21T12:24:17;17.83;;;9.43;;
21876;SDS011;11103;43.788;23.710;2022-08-21T12:26:59;11.40;;;9.33;;
21876;SDS011;11103;43.788;23.710;2022-08-21T12:29:37;11.93;;;9.30;;
21876;SDS011;11103;43.788;23.710;2022-08-21T12:32:18;19.13;;;9.13;;
21876;SDS011;11103;43.788;23.710;2022-08-21T12:34:58;14.90;;;8.37;;
21876;SDS011;11103;43.788;23.710;2022-08-21T12:37:40;11.00;;;8.43;;
21876;SDS011;11103;43.788;23.710;2022-08-21T12:40:18;14.37;;;8.37;;
21876;SDS011;11103;43.788;23.710;2022-08-21T12:45:19;12.70;;;8.87;;
21876;SDS011;11103;43.788;23.710;2022-08-21T12:47:58;16.43;;;9.30;;
21876;SDS011;11103;43.788;23.710;2022-08-21T12:53:04;18.57;;;10.40;;
21876;SDS011;11103;43.788;23.710;2022-08-21T12:55:33;13.60;;;9.00;;
21876;SDS011;11103;43.788;23.710;2022-08-21T12:57:59;20.00;;;9.07;;
21876;SDS011;11103;43.788;23.710;2022-08-21T13:00:28;17.13;;;9.60;;
21876;SDS011;11103;43.788;23.710;2022-08-21T13:02:54;11.83;;;8.13;;
21876;SDS011;11103;43.788;23.710;2022-08-21T13:05:28;12.90;;;8.97;;
21876;SDS011;11103;43.788;23.710;2022-08-21T13:08:07;14.03;;;9.10;;
21876;SDS011;11103;43.788;23.710;2022-08-21T13:10:34;13.43;;;9.27;;
21876;SDS011;11103;43.788;23.710;2022-08-21T13:13:03;14.67;;;9.57;;
21876;SDS011;11103;43.788;23.710;2022-08-21T13:15:41;15.43;;;9.90;;
21876;SDS011;11103;43.788;23.710;2022-08-21T13:18:07;15.57;;;9.63;;
21876;SDS011;11103;43.788;23.710;2022-08-21T13:20:34;10.07;;;8.40;;
21876;SDS011;11103;43.788;23.710;2022-08-21T13:26:24;11.77;;;7.53;;
21876;SDS011;11103;43.788;23.710;2022-08-21T13:28:49;16.83;;;9.07;;
21876;SDS011;11103;43.788;23.710;2022-08-21T13:31:20;15.60;;;7.97;;
21876;SDS011;11103;43.788;23.710;2022-08-21T13:37:14;17.53;;;9.20;;
21876;SDS011;11103;43.788;23.710;2022-08-21T13:39:40;14.67;;;8.33;;
21876;SDS011;11103;43.788;23.710;2022-08-21T13:42:10;9.13;;;7.20;;
21876;SDS011;11103;43.788;23.710;2022-08-21T13:44:42;11.05;;;7.50;;
21876;SDS011;11103;43.788;23.710;2022-08-21T13:47:10;12.70;;;7.55;;
21876;SDS011;11103;43.788;23.710;2022-08-21T13:49:48;12.73;;;7.67;;
21876;SDS011;11103;43.788;23.710;2022-08-21T13:52:18;10.40;;;7.00;;
21876;SDS011;11103;43.788;23.710;2022-08-21T13:57:30;12.18;;;7.93;;
21876;SDS011;11103;43.788;23.710;2022-08-21T14:03:03;8.40;;;7.18;;
21876;SDS011;11103;43.788;23.710;2022-08-21T14:05:35;14.13;;;7.50;;
21876;SDS011;11103;43.788;23.710;2022-08-21T14:11:04;15.37;;;8.63;;
21876;SDS011;11103;43.788;23.710;2022-08-21T14:13:36;10.50;;;7.77;;
21876;SDS011;11103;43.788;23.710;2022-08-21T14:16:03;12.60;;;7.60;;
21876;SDS011;11103;43.788;23.710;2022-08-21T14:18:43;14.90;;;8.77;;
21876;SDS011;11103;43.788;23.710;2022-08-21T14:21:10;16.77;;;11.43;;
21876;SDS011;11103;43.788;23.710;2022-08-21T14:27:06;11.87;;;9.10;;
21876;SDS011;11103;43.788;23.710;2022-08-21T14:29:36;18.80;;;8.40;;
21876;SDS011;11103;43.788;23.710;2022-08-21T14:32:14;14.17;;;8.27;;
21876;SDS011;11103;43.788;23.710;2022-08-21T14:34:47;11.13;;;8.83;;
21876;SDS011;11103;43.788;23.710;2022-08-21T14:37:13;14.33;;;8.07;;
21876;SDS011;11103;43.788;23.710;2022-08-21T14:39:38;11.30;;;8.43;;
21876;SDS011;11103;43.788;23.710;2022-08-21T14:42:04;13.47;;;7.87;;
21876;SDS011;11103;43.788;23.710;2022-08-21T14:44:32;13.07;;;8.38;;
21876;SDS011;11103;43.788;23.710;2022-08-21T14:46:58;12.82;;;8.07;;
21876;SDS011;11103;43.788;23.710;2022-08-21T14:49:25;18.30;;;9.05;;
21876;SDS011;11103;43.788;23.710;2022-08-21T14:51:52;16.90;;;8.17;;
21876;SDS011;11103;43.788;23.710;2022-08-21T14:54:22;12.00;;;8.35;;
21876;SDS011;11103;43.788;23.710;2022-08-21T14:56:53;13.85;;;8.35;;
21876;SDS011;11103;43.788;23.710;2022-08-21T14:59:20;11.93;;;8.10;;
21876;SDS011;11103;43.788;23.710;2022-08-21T15:05:27;23.92;;;12.25;;
21876;SDS011;11103;43.788;23.710;2022-08-21T15:07:53;13.57;;;10.70;;
21876;SDS011;11103;43.788;23.710;2022-08-21T15:10:18;21.67;;;10.17;;
21876;SDS011;11103;43.788;23.710;2022-08-21T15:12:44;17.40;;;10.17;;
21876;SDS011;11103;43.788;23.710;2022-08-21T15:15:18;13.13;;;7.03;;
21876;SDS011;11103;43.788;23.710;2022-08-21T15:17:44;9.47;;;5.90;;
21876;SDS011;11103;43.788;23.710;2022-08-21T15:20:09;8.47;;;5.40;;
21876;SDS011;11103;43.788;23.710;2022-08-21T15:25:04;10.33;;;5.97;;
21876;SDS011;11103;43.788;23.710;2022-08-21T15:27:29;13.60;;;6.00;;
21876;SDS011;11103;43.788;23.710;2022-08-21T15:29:55;11.93;;;5.90;;
21876;SDS011;11103;43.788;23.710;2022-08-21T15:32:22;15.27;;;6.07;;
21876;SDS011;11103;43.788;23.710;2022-08-21T15:34:51;7.13;;;5.73;;
21876;SDS011;11103;43.788;23.710;2022-08-21T15:37:17;9.63;;;5.87;;
21876;SDS011;11103;43.788;23.710;2022-08-21T15:39:43;11.43;;;5.77;;
21876;SDS011;11103;43.788;23.710;2022-08-21T15:42:09;9.07;;;6.80;;
21876;SDS011;11103;43.788;23.710;2022-08-21T15:44:37;9.33;;;5.70;;
21876;SDS011;11103;43.788;23.710;2022-08-21T15:47:04;10.80;;;6.20;;
21876;SDS011;11103;43.788;23.710;2022-08-21T15:49:31;9.00;;;5.87;;
21876;SDS011;11103;43.788;23.710;2022-08-21T15:51:56;7.67;;;5.70;;
21876;SDS011;11103;43.788;23.710;2022-08-21T15:54:22;14.93;;;7.60;;
21876;SDS011;11103;43.788;23.710;2022-08-21T15:56:47;13.87;;;5.57;;
21876;SDS011;11103;43.788;23.710;2022-08-21T15:59:16;12.13;;;6.37;;
21876;SDS011;11103;43.788;23.710;2022-08-21T16:01:47;7.10;;;5.30;;
21876;SDS011;11103;43.788;23.710;2022-08-21T16:04:15;15.23;;;6.87;;
21876;SDS011;11103;43.788;23.710;2022-08-21T16:06:46;8.90;;;5.53;;
21876;SDS011;11103;43.788;23.710;2022-08-21T16:09:11;8.07;;;5.53;;
21876;SDS011;11103;43.788;23.710;2022-08-21T16:11:36;8.47;;;5.80;;
21876;SDS011;11103;43.788;23.710;2022-08-21T16:14:04;9.07;;;6.10;;
21876;SDS011;11103;43.788;23.710;2022-08-21T16:16:29;14.80;;;6.77;;
21876;SDS011;11103;43.788;23.710;2022-08-21T16:18:58;10.10;;;7.00;;
21876;SDS011;11103;43.788;23.710;2022-08-21T16:21:23;10.93;;;6.07;;
21876;SDS011;11103;43.788;23.710;2022-08-21T16:23:49;17.80;;;10.27;;